createdAt,value
2017-12-04T06:52:02.075Z,19.47
2017-12-04T06:52:02.646Z,19.50
2017-12-04T06:52:03.196Z,19.39
2017-12-04T06:52:03.689Z,19.43
2017-12-04T06:52:04.290Z,19.45
2017-12-04T06:52:04.706Z,19.43
2017-12-04T06:56:09.330Z,9.95
2017-12-04T06:56:09.847Z,9.95
2017-12-04T06:56:10.358Z,10.07
2017-12-04T06:56:10.909Z,10.07
2017-12-04T06:56:11.432Z,9.93
2017-12-04T06:56:11.950Z,9.93
2017-12-04T06:56:12.482Z,9.93
2017-12-04T06:56:13.109Z,9.91
2017-12-04T06:57:14.359Z,9.32
2017-12-04T06:57:14.874Z,9.27
2017-12-04T06:57:15.444Z,9.34
2017-12-04T06:57:16.017Z,9.34
2017-12-04T06:57:16.562Z,9.31
2017-12-04T06:57:17.126Z,9.31
2017-12-04T06:57:17.648Z,9.34
2017-12-04T06:57:18.194Z,9.24
2017-12-04T06:58:12.793Z,8.52
2017-12-04T06:58:13.324Z,8.55
2017-12-04T06:58:13.841Z,8.50
2017-12-04T06:58:14.390Z,8.55
2017-12-04T06:58:14.899Z,8.42
2017-12-04T06:58:15.426Z,8.49
2017-12-04T06:58:15.957Z,8.37
2017-12-04T06:58:16.474Z,8.47
2017-12-04T06:58:17.043Z,8.47
2017-12-04T06:58:17.547Z,8.45
2017-12-04T06:58:18.074Z,8.40
2017-12-04T06:58:18.593Z,8.42
2017-12-04T06:58:19.117Z,8.49
2017-12-04T06:58:19.653Z,8.43
2017-12-04T06:58:20.233Z,8.40
2017-12-04T06:58:20.765Z,8.47
2017-12-04T06:58:21.284Z,8.43
2017-12-04T06:58:21.827Z,8.34
2017-12-04T06:58:22.347Z,8.47
2017-12-04T06:58:22.878Z,8.40
2017-12-04T06:58:23.405Z,8.39
2017-12-04T06:58:23.926Z,8.37
2017-12-04T06:58:24.453Z,8.28
2017-12-04T06:58:25.035Z,8.34
2017-12-04T06:58:25.580Z,8.32
2017-12-04T06:58:26.094Z,8.28
2017-12-04T06:58:27.139Z,8.32
2017-12-04T06:58:27.198Z,8.29
2017-12-04T06:58:27.617Z,8.25
2017-12-04T06:58:28.145Z,8.31
2017-12-04T06:58:28.666Z,8.32
2017-12-04T06:58:29.192Z,8.17
2017-12-04T06:58:29.715Z,8.13
2017-12-04T06:58:30.237Z,8.17
2017-12-04T06:58:30.765Z,8.21
2017-12-04T06:58:31.285Z,8.28
2017-12-04T06:58:31.829Z,8.09
2017-12-04T06:58:32.378Z,8.13
2017-12-04T06:58:32.957Z,8.17
2017-12-04T06:58:33.474Z,8.21
2017-12-04T06:58:33.989Z,8.17
2017-12-04T06:58:34.539Z,8.12
2017-12-04T06:58:35.105Z,8.22
2017-12-04T06:58:35.620Z,8.21
2017-12-04T06:58:36.142Z,8.17
2017-12-04T06:58:36.705Z,8.07
2017-12-04T06:58:37.225Z,8.10
2017-12-04T06:58:37.755Z,8.07
2017-12-04T06:58:38.302Z,8.09
2017-12-04T06:58:38.871Z,8.06
2017-12-04T06:58:39.432Z,8.09
2017-12-04T06:58:39.953Z,8.09
2017-12-04T06:58:40.473Z,8.09
2017-12-04T06:58:40.997Z,8.09
2017-12-04T06:58:41.503Z,8.00
2017-12-04T06:58:42.031Z,7.96
2017-12-04T06:58:42.552Z,8.00
2017-12-04T06:58:43.100Z,7.96
2017-12-04T06:58:43.611Z,8.04
2017-12-04T06:58:44.152Z,8.09
2017-12-04T06:58:44.689Z,7.99
2017-12-04T06:58:45.216Z,7.99
2017-12-04T06:58:45.749Z,7.99
2017-12-04T06:58:46.315Z,8.00
2017-12-04T06:58:46.871Z,7.94
2017-12-04T06:58:47.383Z,8.00
2017-12-04T06:58:47.915Z,7.99
2017-12-04T06:58:48.456Z,7.95
2017-12-04T06:58:48.985Z,7.92
2017-12-04T06:58:49.507Z,7.94
2017-12-04T06:58:50.068Z,7.91
2017-12-04T06:58:50.596Z,7.96
2017-12-04T06:58:51.105Z,7.95
2017-12-04T06:58:51.675Z,7.91
2017-12-04T06:58:52.197Z,7.91
2017-12-04T06:58:52.732Z,7.88
2017-12-04T06:58:53.257Z,7.91
2017-12-04T06:58:53.785Z,7.96
2017-12-04T06:58:54.308Z,7.96
2017-12-04T06:58:54.827Z,7.91
2017-12-04T06:58:55.347Z,7.94
2017-12-04T06:58:55.868Z,7.92
2017-12-04T06:58:56.387Z,7.82
2017-12-04T06:58:56.913Z,7.99
2017-12-04T06:58:57.439Z,7.84
2017-12-04T06:58:58.001Z,7.81
2017-12-04T06:58:58.505Z,7.81
2017-12-04T06:58:59.024Z,7.85
2017-12-04T06:58:59.541Z,7.82
2017-12-04T06:59:00.075Z,7.88
2017-12-04T06:59:00.597Z,7.86
2017-12-04T06:59:01.116Z,7.85
2017-12-04T06:59:01.643Z,7.89
2017-12-04T06:59:02.155Z,7.89
2017-12-04T06:59:02.709Z,7.89
2017-12-04T06:59:03.221Z,7.84
2017-12-04T06:59:03.751Z,7.84
2017-12-04T06:59:04.269Z,7.91
2017-12-04T06:59:04.795Z,7.91
2017-12-04T06:59:05.338Z,7.84
2017-12-04T11:51:15.400Z,20.83
2017-12-04T11:51:15.914Z,20.75
2017-12-04T11:51:16.419Z,20.81
2017-12-04T11:51:16.992Z,20.75
2017-12-04T11:51:17.536Z,20.57
2017-12-04T11:51:18.098Z,20.63
2017-12-04T11:52:12.045Z,17.06
2017-12-04T11:52:12.587Z,16.91
2017-12-04T11:52:13.129Z,16.98
2017-12-04T11:52:13.647Z,16.99
2017-12-04T11:52:14.197Z,16.92
2017-12-04T11:52:14.727Z,16.69
2017-12-04T11:52:15.275Z,16.73
2017-12-04T11:52:15.809Z,16.78
2017-12-04T11:53:09.367Z,13.55
2017-12-04T11:53:09.924Z,13.59
2017-12-04T11:53:10.454Z,13.54
2017-12-04T11:53:10.984Z,13.51
2017-12-04T11:53:11.518Z,13.50
2017-12-04T11:53:12.092Z,13.46
2017-12-04T11:53:12.643Z,13.47
2017-12-04T11:53:13.124Z,13.41
2017-12-04T11:53:13.678Z,13.46
2017-12-04T11:54:07.775Z,11.36
2017-12-04T11:54:08.327Z,11.28
2017-12-04T11:54:08.868Z,11.26
2017-12-04T11:54:09.340Z,11.28
2017-12-04T11:54:09.868Z,11.16
2017-12-04T11:54:10.398Z,11.23
2017-12-04T11:54:10.932Z,11.17
2017-12-04T11:54:11.486Z,11.13
2017-12-04T11:54:12.016Z,11.09
2017-12-04T11:55:06.102Z,9.88
2017-12-04T11:55:06.600Z,9.77
2017-12-04T11:55:07.120Z,9.78
2017-12-04T11:55:07.652Z,9.78
2017-12-04T11:55:08.163Z,9.80
2017-12-04T11:55:08.792Z,9.74
2017-12-04T11:55:09.317Z,9.81
2017-12-04T11:55:09.940Z,9.77
2017-12-04T11:56:04.007Z,8.97
2017-12-04T11:56:04.602Z,9.00
2017-12-04T11:56:05.112Z,9.04
2017-12-04T11:56:05.633Z,9.00
2017-12-04T11:56:06.149Z,8.96
2017-12-04T11:56:06.735Z,8.98
2017-12-04T11:56:07.205Z,8.98
2017-12-04T11:56:07.728Z,8.96
2017-12-04T11:56:08.287Z,9.00
2017-12-04T11:57:02.300Z,8.36
2017-12-04T11:57:02.818Z,8.28
2017-12-04T11:57:03.360Z,8.37
2017-12-04T11:57:03.935Z,8.36
2017-12-04T11:57:04.450Z,8.28
2017-12-04T11:57:04.978Z,8.36
2017-12-04T11:57:05.538Z,8.31
2017-12-04T11:57:06.098Z,8.29
2017-12-04T11:58:00.089Z,7.94
2017-12-04T11:58:00.674Z,7.91
2017-12-04T11:58:01.187Z,7.96
2017-12-04T11:58:01.719Z,7.95
2017-12-04T11:58:02.260Z,7.92
2017-12-04T11:58:02.840Z,7.92
2017-12-04T11:58:03.394Z,7.99
2017-12-04T11:58:03.972Z,7.94
2017-12-04T11:58:58.586Z,7.81
2017-12-04T11:58:59.117Z,7.81
2017-12-04T11:58:59.661Z,7.88
2017-12-04T11:59:00.212Z,7.85
2017-12-04T11:59:00.784Z,7.79
2017-12-04T11:59:01.258Z,7.81
2017-12-04T11:59:01.830Z,7.77
2017-12-04T11:59:02.386Z,7.81
2017-12-04T11:59:56.467Z,7.69
2017-12-04T11:59:57.059Z,7.66
2017-12-04T11:59:57.564Z,7.71
2017-12-04T11:59:58.093Z,7.67
2017-12-04T11:59:58.671Z,7.69
2017-12-04T11:59:59.206Z,7.71
2017-12-04T11:59:59.737Z,7.74
2017-12-04T12:00:00.259Z,7.66
2017-12-04T12:00:54.301Z,7.57
2017-12-04T12:00:54.824Z,7.54
2017-12-04T12:00:55.355Z,7.52
2017-12-04T12:00:55.879Z,7.55
2017-12-04T12:00:56.395Z,7.52
2017-12-04T12:00:56.931Z,7.54
2017-12-04T12:00:57.470Z,7.58
2017-12-04T12:00:58.053Z,7.57
2017-12-04T12:01:52.043Z,7.47
2017-12-04T12:01:52.566Z,7.44
2017-12-04T12:01:53.096Z,7.48
2017-12-04T12:01:53.672Z,7.44
2017-12-04T12:01:54.189Z,7.45
2017-12-04T12:01:54.709Z,7.47
2017-12-04T12:01:55.229Z,7.44
2017-12-04T12:01:55.757Z,7.50
2017-12-04T12:03:40.881Z,7.39
2017-12-04T12:03:41.409Z,7.42
2017-12-04T12:03:41.916Z,7.39
2017-12-04T12:03:42.445Z,7.37
2017-12-04T12:03:42.970Z,7.33
2017-12-04T12:03:43.488Z,7.41
2017-12-04T12:03:44.026Z,7.36
2017-12-04T12:03:44.610Z,7.34
2017-12-04T14:39:00.875Z,23.74
2017-12-04T14:39:01.390Z,23.64
2017-12-04T14:39:01.910Z,23.67
2017-12-04T14:39:02.438Z,23.71
2017-12-04T14:39:02.963Z,23.67
2017-12-04T14:39:03.533Z,23.67
2017-12-04T14:39:56.931Z,22.75
2017-12-04T14:39:57.238Z,22.60
2017-12-04T14:39:57.755Z,22.67
2017-12-04T14:39:58.293Z,22.63
2017-12-04T14:39:58.798Z,22.54
2017-12-04T14:39:59.330Z,22.69
2017-12-04T14:39:59.892Z,22.61
2017-12-04T14:40:00.463Z,22.48
2017-12-04T14:40:55.035Z,20.33
2017-12-04T14:40:55.594Z,20.35
2017-12-04T14:40:56.108Z,20.38
2017-12-04T14:40:56.628Z,20.26
2017-12-04T14:40:57.152Z,20.12
2017-12-04T14:40:57.672Z,20.22
2017-12-04T14:40:58.224Z,20.10
2017-12-04T14:40:58.787Z,20.16
2017-12-04T14:42:43.353Z,15.77
2017-12-04T14:42:43.877Z,15.76
2017-12-04T14:42:44.400Z,15.71
2017-12-04T14:42:44.922Z,15.71
2017-12-04T14:42:45.446Z,15.71
2017-12-04T14:42:45.986Z,15.76
2017-12-04T14:42:46.486Z,15.62
2017-12-04T14:42:47.010Z,15.70
2017-12-04T14:42:47.574Z,15.73
2017-12-04T14:43:41.606Z,12.77
2017-12-04T14:43:42.156Z,12.71
2017-12-04T14:43:42.674Z,12.59
2017-12-04T14:43:43.194Z,12.63
2017-12-04T14:43:43.771Z,12.55
2017-12-04T14:43:44.322Z,12.59
2017-12-04T14:45:26.879Z,10.60
2017-12-04T14:45:27.409Z,10.58
2017-12-04T14:45:27.935Z,10.62
2017-12-04T14:45:28.481Z,10.58
2017-12-04T14:45:29.000Z,10.60
2017-12-04T14:45:29.623Z,10.55
2017-12-04T14:45:30.168Z,10.57
2017-12-04T14:45:30.727Z,10.51
2017-12-04T14:45:31.275Z,10.51
2017-12-04T14:46:26.534Z,10.11
2017-12-04T14:46:27.110Z,10.04
2017-12-04T14:46:27.621Z,10.04
2017-12-04T14:46:28.142Z,10.06
2017-12-04T14:46:28.665Z,10.10
2017-12-04T14:46:29.193Z,10.09
2017-12-04T14:46:29.763Z,10.04
2017-12-04T14:46:30.315Z,10.10
2017-12-04T14:46:30.863Z,10.06
2017-12-04T14:46:31.383Z,10.10
2017-12-04T14:46:31.903Z,10.11
2017-12-04T14:46:32.431Z,10.09
2017-12-04T14:46:32.953Z,10.09
2017-12-04T14:46:33.515Z,10.09
2017-12-04T14:46:34.061Z,10.06
2017-12-04T14:46:34.650Z,10.09
2017-12-04T14:46:35.171Z,10.01
2017-12-04T14:46:35.764Z,10.04
2017-12-04T14:46:36.311Z,10.01
2017-12-04T14:46:36.865Z,9.96
2017-12-04T14:46:37.445Z,9.99
2017-12-04T14:46:37.961Z,9.98
2017-12-04T14:46:38.521Z,10.02
2017-12-04T14:46:39.041Z,10.01
2017-12-04T14:46:39.563Z,10.01
2017-12-04T14:46:40.081Z,9.99
2017-12-04T14:46:40.626Z,10.07
2017-12-04T14:46:41.185Z,9.98
2017-12-04T14:46:41.712Z,10.07
2017-12-04T14:46:42.230Z,9.98
2017-12-04T14:46:42.825Z,9.99
2017-12-04T14:46:43.347Z,9.95
2017-12-04T14:46:43.903Z,9.93
2017-12-04T14:46:44.432Z,9.93
2017-12-04T14:46:45.001Z,10.02
2017-12-04T14:46:45.611Z,10.10
2017-12-04T14:46:46.148Z,9.93
2017-12-04T14:46:46.723Z,10.01
2017-12-04T14:46:47.263Z,9.95
2017-12-04T14:46:47.819Z,10.01
2017-12-04T14:46:48.410Z,9.96
2017-12-04T14:46:48.941Z,9.91
2017-12-04T14:46:49.514Z,9.99
2017-12-04T14:46:50.033Z,10.07
2017-12-04T14:46:50.565Z,9.98
2017-12-04T14:46:51.107Z,9.99
2017-12-04T14:46:51.687Z,9.98
2017-12-04T14:46:52.219Z,9.98
2017-12-04T14:46:52.738Z,10.01
2017-12-04T14:46:53.272Z,9.92
2017-12-04T14:46:53.788Z,9.99
2017-12-04T14:46:54.454Z,9.99
2017-12-04T14:46:55.028Z,9.95
2017-12-04T14:46:55.548Z,9.99
2017-12-04T14:46:56.073Z,10.02
2017-12-04T14:46:56.630Z,9.95
2017-12-04T14:46:57.189Z,9.95
2017-12-04T14:46:57.758Z,9.98
2017-12-04T14:46:58.289Z,9.89
2017-12-04T14:46:58.814Z,9.91
2017-12-04T14:46:59.338Z,9.98
2017-12-04T14:46:59.913Z,9.99
2017-12-04T14:47:00.500Z,9.99
2017-12-04T14:47:01.025Z,9.99
2017-12-04T14:47:01.610Z,9.98
2017-12-04T14:47:02.144Z,9.89
2017-12-04T14:47:02.662Z,9.95
2017-12-04T14:47:03.187Z,9.98
2017-12-04T14:47:04.040Z,9.96
2017-12-04T14:47:04.383Z,9.93
2017-12-04T14:47:04.890Z,9.92
2017-12-04T14:47:05.440Z,9.89
2017-12-04T14:47:05.958Z,9.98
2017-12-04T14:47:06.481Z,9.98
2017-12-04T14:47:07.041Z,9.96
2017-12-04T14:47:07.553Z,9.92
2017-12-04T14:47:08.134Z,9.93
2017-12-04T14:47:08.662Z,9.86
2017-12-04T14:47:09.181Z,9.85
2017-12-04T14:47:09.765Z,9.88
2017-12-04T14:47:10.315Z,9.88
2017-12-04T14:47:10.863Z,9.86
2017-12-04T14:47:11.385Z,9.88
2017-12-04T14:47:11.904Z,9.86
2017-12-04T14:47:12.426Z,9.89
2017-12-04T14:47:12.945Z,9.93
2017-12-04T14:47:13.549Z,9.91
2017-12-04T14:47:14.061Z,9.92
2017-12-04T14:47:14.641Z,9.88
2017-12-04T14:47:15.187Z,9.86
2017-12-04T14:47:15.755Z,9.92
2017-12-04T14:47:16.293Z,9.91
2017-12-04T14:47:16.793Z,9.92
2017-12-04T14:47:17.384Z,9.88
2017-12-04T14:47:17.893Z,9.89
2017-12-04T14:47:18.419Z,9.91
2017-12-04T14:47:18.931Z,9.89
2017-12-04T14:47:19.475Z,9.88
2017-12-04T14:47:20.004Z,9.88
2017-12-04T14:47:20.569Z,9.86
2017-12-04T14:47:21.099Z,9.95
2017-12-04T14:47:21.629Z,9.91
2017-12-04T14:47:22.150Z,9.89
2017-12-04T14:47:22.715Z,9.91
2017-12-04T14:47:23.295Z,9.91
2017-12-04T14:47:23.824Z,9.86
2017-12-04T14:47:24.342Z,9.91
2017-12-04T14:47:24.863Z,9.86
2017-12-04T14:47:25.427Z,9.80
2017-12-04T14:47:25.986Z,9.77
2017-12-04T14:47:26.551Z,9.89
2017-12-04T14:47:27.069Z,9.92
2017-12-04T14:47:27.593Z,9.85
2017-12-04T14:47:28.099Z,9.83
2017-12-04T14:47:28.635Z,9.83
2017-12-04T14:47:29.187Z,9.86
2017-12-04T14:47:29.719Z,9.78
2017-12-04T14:47:30.293Z,9.86
2017-12-04T14:47:30.810Z,9.81
2017-12-04T14:47:31.354Z,9.80
2017-12-04T14:47:31.872Z,9.78
2017-12-04T14:47:32.390Z,9.78
2017-12-04T14:47:32.947Z,9.77
2017-12-04T14:47:33.513Z,9.80
2017-12-04T14:47:34.063Z,9.83
2017-12-04T14:47:34.592Z,9.71
2017-12-04T14:47:35.119Z,9.78
2017-12-04T14:47:35.667Z,9.81
2017-12-04T14:47:36.235Z,9.74
2017-12-04T14:47:36.785Z,9.73
2017-12-04T14:47:37.310Z,9.81
2017-12-04T14:47:37.893Z,9.70
2017-12-04T14:47:38.385Z,9.80
2017-12-04T14:47:38.951Z,9.81
2017-12-04T14:47:39.519Z,9.73
2017-12-04T14:47:40.043Z,9.73
2017-12-04T14:47:40.613Z,9.78
2017-12-04T14:47:41.135Z,9.85
2017-12-04T14:47:41.671Z,9.86
2017-12-04T14:47:42.205Z,9.75
2017-12-04T14:47:42.792Z,9.73
2017-12-04T14:47:43.355Z,9.77
2017-12-04T14:47:43.885Z,9.74
2017-12-04T14:47:44.453Z,9.73
2017-12-04T14:47:45.033Z,9.74
2017-12-04T14:47:45.577Z,9.74
2017-12-04T14:47:46.103Z,9.83
2017-12-04T14:47:46.632Z,9.81
2017-12-04T14:47:47.190Z,9.71
2017-12-04T14:47:47.757Z,9.73
2017-12-04T14:47:48.343Z,9.73
2017-12-04T14:47:48.927Z,9.74
2017-12-04T14:47:49.450Z,9.81
2017-12-04T14:47:49.942Z,9.73
2017-12-04T14:47:50.474Z,9.80
2017-12-04T14:48:45.059Z,9.58
2017-12-04T14:48:45.577Z,9.63
2017-12-04T14:48:46.098Z,9.59
2017-12-04T14:48:46.619Z,9.59
2017-12-04T14:48:47.174Z,9.63
2017-12-04T14:48:47.738Z,9.55
